Time;durP1;ratioP1;P1;durP2;ratioP2;P2;SDS_P1;SDS_P2;PMS_P1;PMS_P2;Temp;Humidity;BMP_temperature;BMP_pressure;BME280_temperature;BME280_humidity;BME280_pressure;Samples;Min_cycle;Max_cycle;Signal;HPM_P1;HPM_P2
2023/09/27 00:00:54;;;;;;;5.38;4.05;;;15.20;99.90;;;;;;5091468;28;20169;-49
2023/09/27 00:03:20;;;;;;;5.07;4.10;;;15.30;99.90;;;;;;5091871;28;20200;-49
2023/09/27 00:05:46;;;;;;;5.43;3.88;;;15.20;99.90;;;;;;5091266;28;20170;-50
2023/09/27 00:08:12;;;;;;;7.13;3.85;;;;;;;;;;5091409;28;20185;-49
2023/09/27 00:10:37;;;;;;;5.10;4.03;;;15.10;99.90;;;;;;5091035;28;20223;-49
2023/09/27 00:13:03;;;;;;;8.38;4.10;;;15.00;99.90;;;;;;5091384;28;20173;-49
2023/09/27 00:15:29;;;;;;;6.10;3.83;;;15.00;99.90;;;;;;5091311;28;20225;-49
2023/09/27 00:17:54;;;;;;;4.80;3.80;;;14.90;99.90;;;;;;5073175;28;20193;-49
2023/09/27 00:20:21;;;;;;;4.60;3.55;;;14.90;99.90;;;;;;5091828;28;20575;-49
2023/09/27 00:22:47;;;;;;;5.72;3.85;;;14.80;99.90;;;;;;5091521;28;20177;-49
2023/09/27 00:25:14;;;;;;;4.20;3.78;;;14.70;99.90;;;;;;5091123;28;20530;-49
2023/09/27 00:27:39;;;;;;;5.60;4.28;;;14.70;99.90;;;;;;5091330;28;20220;-49
2023/09/27 00:30:09;;;;;;;4.65;3.65;;;14.60;99.90;;;;;;5091197;28;20534;-49
2023/09/27 00:32:35;;;;;;;5.97;3.85;;;14.60;99.90;;;;;;5091123;28;20525;-49
2023/09/27 00:35:02;;;;;;;6.28;4.15;;;14.60;99.90;;;;;;5091343;28;20169;-49
2023/09/27 00:37:27;;;;;;;6.10;3.60;;;14.60;99.90;;;;;;5091441;28;20628;-50
2023/09/27 00:39:55;;;;;;;8.60;3.97;;;14.60;99.90;;;;;;5091506;28;20189;-49
2023/09/27 00:42:20;;;;;;;4.75;3.90;;;14.60;99.90;;;;;;5073298;28;20173;-49
2023/09/27 00:44:46;;;;;;;4.88;3.55;;;;;;;;;;5090806;28;20218;-49
2023/09/27 00:47:12;;;;;;;4.57;3.83;;;14.50;99.90;;;;;;5090926;28;20212;-49
2023/09/27 00:49:39;;;;;;;5.13;4.10;;;14.50;99.90;;;;;;5092902;28;20166;-50
2023/09/27 00:52:05;;;;;;;6.57;4.57;;;14.50;99.90;;;;;;5094742;28;20200;-50
2023/09/27 00:54:32;;;;;;;4.72;4.22;;;14.60;99.90;;;;;;5094772;28;20360;-50
2023/09/27 00:56:59;;;;;;;4.95;3.78;;;14.60;99.90;;;;;;5094695;28;20169;-50
2023/09/27 00:59:26;;;;;;;4.43;3.88;;;14.50;99.90;;;;;;5094616;28;20204;-51
2023/09/27 01:01:52;;;;;;;6.25;4.03;;;14.50;99.90;;;;;;5095046;28;20165;-50
2023/09/27 01:04:18;;;;;;;7.45;4.22;;;14.40;99.90;;;;;;5094496;28;20270;-50
2023/09/27 01:06:44;;;;;;;6.22;3.92;;;14.40;99.90;;;;;;5094428;28;20205;-50
2023/09/27 01:09:11;;;;;;;5.03;4.07;;;14.40;99.90;;;;;;5076265;28;20268;-50
2023/09/27 01:11:37;;;;;;;5.80;3.65;;;14.40;99.90;;;;;;5094684;28;20173;-50
2023/09/27 01:14:03;;;;;;;8.98;4.88;;;14.40;99.90;;;;;;5076212;28;20165;-50
2023/09/27 01:16:28;;;;;;;6.07;4.70;;;14.30;99.90;;;;;;5094311;28;20215;-51
2023/09/27 01:18:59;;;;;;;6.95;4.90;;;14.20;99.90;;;;;;5094327;28;20170;-51
2023/09/27 01:21:25;;;;;;;9.93;4.50;;;14.30;99.90;;;;;;5094246;28;20165;-51
2023/09/27 01:23:50;;;;;;;6.40;4.28;;;14.30;99.90;;;;;;5094613;28;20717;-51
2023/09/27 01:26:18;;;;;;;9.70;5.00;;;14.30;99.90;;;;;;5094281;28;20664;-51
2023/09/27 01:28:46;;;;;;;6.78;4.85;;;14.20;99.90;;;;;;5094010;28;20612;-51
2023/09/27 01:31:12;;;;;;;6.40;4.38;;;14.30;99.90;;;;;;5094053;28;20165;-51
2023/09/27 01:33:39;;;;;;;8.73;4.55;;;14.30;99.90;;;;;;5094180;28;20169;-51
2023/09/27 01:36:05;;;;;;;9.93;4.70;;;14.30;99.90;;;;;;5094178;28;20173;-51
2023/09/27 01:38:31;;;;;;;8.48;4.30;;;14.40;99.90;;;;;;5094159;28;20515;-51
2023/09/27 01:40:57;;;;;;;7.93;4.35;;;14.20;99.90;;;;;;5093806;28;20248;-51
2023/09/27 01:43:23;;;;;;;8.15;4.55;;;14.20;99.90;;;;;;5094527;28;20173;-51
2023/09/27 01:45:48;;;;;;;7.75;4.28;;;14.20;99.90;;;;;;5093479;28;20223;-51
2023/09/27 01:48:14;;;;;;;7.40;4.55;;;14.20;99.90;;;;;;5093605;28;20217;-51
2023/09/27 01:50:39;;;;;;;7.05;4.53;;;14.20;99.90;;;;;;5093951;28;20165;-51
2023/09/27 01:53:05;;;;;;;7.15;4.65;;;14.20;99.90;;;;;;5093571;28;20252;-51
2023/09/27 01:55:31;;;;;;;11.23;5.25;;;14.20;99.90;;;;;;5093769;28;20640;-51
2023/09/27 01:57:57;;;;;;;6.18;4.20;;;14.20;99.90;;;;;;5093452;28;20161;-51
2023/09/27 02:00:23;;;;;;;5.43;4.18;;;14.20;99.90;;;;;;5093892;28;20173;-51
2023/09/27 02:02:50;;;;;;;4.55;3.70;;;14.10;99.90;;;;;;5093398;28;20173;-51
2023/09/27 02:05:16;;;;;;;6.22;3.92;;;14.10;99.90;;;;;;5093236;28;20540;-51
2023/09/27 02:07:42;;;;;;;6.22;4.38;;;14.00;99.90;;;;;;5093284;28;20224;-51
2023/09/27 02:10:11;;;;;;;7.95;5.15;;;14.00;99.90;;;;;;5093229;28;20165;-51
2023/09/27 02:12:38;;;;;;;4.85;3.58;;;14.00;99.90;;;;;;5093168;28;20180;-51
2023/09/27 02:15:12;;;;;;;10.15;4.32;;;14.00;99.90;;;;;;5093108;28;20157;-51
2023/09/27 02:17:39;;;;;;;5.28;4.07;;;14.00;99.90;;;;;;5093007;28;20633;-50
2023/09/27 02:20:13;;;;;;;5.90;3.53;;;14.00;99.90;;;;;;5074695;28;20240;-50
2023/09/27 02:22:40;;;;;;;4.68;3.97;;;14.00;99.90;;;;;;5093230;28;20172;-50
2023/09/27 02:25:11;;;;;;;9.00;4.25;;;14.00;99.90;;;;;;5093249;28;20513;-50
2023/09/27 02:27:40;;;;;;;7.22;4.82;;;14.00;99.90;;;;;;5092798;28;20232;-50
2023/09/27 02:30:11;;;;;;;5.50;4.82;;;14.00;99.90;;;;;;5092729;28;20177;-50
2023/09/27 02:32:37;;;;;;;9.02;4.15;;;14.00;99.90;;;;;;5092714;28;20252;-50
2023/09/27 02:35:02;;;;;;;6.55;4.20;;;14.00;99.90;;;;;;5092715;28;20249;-50
2023/09/27 02:37:28;;;;;;;8.38;4.25;;;14.00;99.90;;;;;;5092757;28;20173;-50
2023/09/27 02:39:54;;;;;;;5.68;4.68;;;;;;;;;;5092688;28;20684;-50
2023/09/27 02:42:20;;;;;;;6.70;4.18;;;14.00;99.90;;;;;;5093023;28;20255;-50
2023/09/27 02:44:47;;;;;;;6.20;4.38;;;13.90;99.90;;;;;;5092908;28;20177;-50
2023/09/27 02:47:13;;;;;;;7.15;4.50;;;13.90;99.90;;;;;;5092724;28;20251;-50
2023/09/27 02:49:38;;;;;;;5.97;4.40;;;13.90;99.90;;;;;;5092698;28;20169;-50
2023/09/27 02:52:06;;;;;;;6.22;4.88;;;13.90;99.90;;;;;;5092513;28;20211;-50
2023/09/27 02:54:33;;;;;;;7.15;4.50;;;13.90;99.90;;;;;;5092324;28;20202;-50
2023/09/27 02:56:58;;;;;;;4.50;3.80;;;13.80;99.90;;;;;;5092246;28;20177;-50
2023/09/27 02:59:24;;;;;;;6.30;4.45;;;13.80;99.90;;;;;;5092304;28;20157;-50
2023/09/27 03:01:49;;;;;;;6.07;4.28;;;13.70;99.90;;;;;;5092779;28;20686;-50
2023/09/27 03:04:15;;;;;;;7.18;4.75;;;13.70;99.90;;;;;;5092182;28;20173;-50
2023/09/27 03:06:41;;;;;;;4.43;3.78;;;13.70;99.90;;;;;;5092059;28;20189;-50
2023/09/27 03:09:08;;;;;;;9.73;4.15;;;13.70;99.90;;;;;;5092119;28;20270;-50
2023/09/27 03:11:35;;;;;;;5.13;4.25;;;;;;;;;;5091490;28;20161;-50
2023/09/27 03:14:01;;;;;;;8.63;5.03;;;13.60;99.90;;;;;;5092004;28;20713;-50
2023/09/27 03:16:27;;;;;;;5.85;3.60;;;13.60;99.90;;;;;;5091915;28;20157;-50
2023/09/27 03:18:54;;;;;;;4.72;4.10;;;13.60;99.90;;;;;;5092353;28;20612;-50
2023/09/27 03:21:20;;;;;;;5.20;4.20;;;13.50;99.90;;;;;;5092427;28;20625;-50
2023/09/27 03:23:46;;;;;;;4.15;3.75;;;13.50;99.90;;;;;;5091998;28;20165;-50
2023/09/27 03:26:12;;;;;;;6.30;4.35;;;13.50;99.90;;;;;;5091739;28;20213;-50
2023/09/27 03:28:38;;;;;;;5.63;3.88;;;13.50;99.90;;;;;;5091848;28;20157;-50
2023/09/27 03:31:05;;;;;;;4.15;3.50;;;13.40;99.90;;;;;;5092060;28;20538;-50
2023/09/27 03:33:31;;;;;;;4.00;3.60;;;13.30;99.90;;;;;;5091772;28;20214;-50
2023/09/27 03:35:57;;;;;;;5.28;3.83;;;13.30;99.90;;;;;;5091925;28;20169;-50
2023/09/27 03:38:23;;;;;;;4.32;3.55;;;13.20;99.90;;;;;;5092430;28;20177;-50
2023/09/27 03:40:49;;;;;;;9.75;4.28;;;;;;;;;;5092137;28;20169;-50
2023/09/27 03:43:15;;;;;;;6.40;4.00;;;13.20;99.90;;;;;;5091803;28;20180;-50
2023/09/27 03:45:41;;;;;;;8.88;3.72;;;13.20;99.90;;;;;;5091458;28;20221;-50
2023/09/27 03:48:06;;;;;;;4.88;4.05;;;13.30;99.90;;;;;;5091497;28;20204;-50
2023/09/27 03:50:32;;;;;;;7.25;4.03;;;13.20;99.90;;;;;;5091474;28;20165;-50
2023/09/27 03:52:58;;;;;;;5.45;3.50;;;13.20;99.90;;;;;;5091525;28;20580;-50
2023/09/27 03:55:25;;;;;;;6.05;3.75;;;13.20;99.90;;;;;;5091729;28;20165;-50
2023/09/27 03:57:51;;;;;;;6.70;3.88;;;13.20;99.90;;;;;;5091731;28;20532;-50
2023/09/27 04:00:18;;;;;;;10.38;3.90;;;13.10;99.90;;;;;;5073807;28;20176;-50
2023/09/27 04:02:44;;;;;;;6.60;3.90;;;13.20;99.90;;;;;;5091585;28;20183;-50
2023/09/27 04:05:11;;;;;;;4.15;3.65;;;13.20;99.90;;;;;;5091659;28;20187;-50
2023/09/27 04:07:37;;;;;;;9.95;3.97;;;13.10;99.90;;;;;;5091248;28;20291;-50
2023/09/27 04:10:04;;;;;;;8.32;4.45;;;13.10;99.90;;;;;;5091537;28;20196;-50
2023/09/27 04:12:30;;;;;;;7.68;5.85;;;13.10;99.90;;;;;;5091294;28;20655;-50
2023/09/27 04:14:56;;;;;;;5.32;4.32;;;13.10;99.90;;;;;;5091224;28;20174;-50
2023/09/27 04:17:22;;;;;;;7.32;4.07;;;13.00;99.90;;;;;;5091788;28;20172;-50
2023/09/27 04:19:50;;;;;;;5.30;4.25;;;13.00;99.90;;;;;;5091298;28;20294;-50
2023/09/27 04:22:16;;;;;;;4.00;3.60;;;13.00;99.90;;;;;;5073082;28;20165;-51
2023/09/27 04:24:42;;;;;;;7.07;4.20;;;;;;;;;;5094709;28;20628;-50
2023/09/27 04:27:08;;;;;;;4.50;3.90;;;;;;;;;;5095178;28;20215;-50
2023/09/27 04:29:33;;;;;;;5.30;4.00;;;13.00;99.90;;;;;;5095565;28;20250;-51
2023/09/27 04:31:59;;;;;;;7.63;4.80;;;12.90;99.90;;;;;;5095175;28;20210;-51
2023/09/27 04:34:25;;;;;;;30.63;14.00;;;13.00;99.90;;;;;;5095118;28;20165;-51
2023/09/27 04:36:50;;;;;;;8.30;5.13;;;12.90;99.90;;;;;;5095534;28;20165;-51
2023/09/27 04:39:18;;;;;;;10.18;5.93;;;12.90;99.90;;;;;;5095314;28;20705;-51
2023/09/27 04:41:46;;;;;;;42.90;20.85;;;13.00;99.90;;;;;;5095021;28;20161;-51
2023/09/27 04:44:12;;;;;;;11.57;7.10;;;;;;;;;;5094961;28;20162;-51
2023/09/27 04:46:38;;;;;;;9.73;5.47;;;12.80;99.90;;;;;;5094605;28;20247;-51
2023/09/27 04:49:03;;;;;;;7.53;4.90;;;12.80;99.90;;;;;;5094879;28;20166;-50
2023/09/27 04:51:29;;;;;;;6.60;5.07;;;12.80;99.90;;;;;;5094752;28;20181;-51
2023/09/27 04:54:00;;;;;;;8.43;4.15;;;12.80;99.90;;;;;;5094681;28;20204;-50
2023/09/27 04:56:26;;;;;;;8.15;5.00;;;12.80;99.90;;;;;;5094940;28;20201;-50
2023/09/27 04:58:52;;;;;;;9.07;4.57;;;;;;;;;;5094918;28;20170;-51
2023/09/27 05:01:18;;;;;;;7.57;4.30;;;;;;;;;;5094992;28;20173;-50
2023/09/27 05:03:44;;;;;;;5.13;4.63;;;12.70;99.90;;;;;;5094737;28;20166;-51
2023/09/27 05:06:09;;;;;;;6.82;4.60;;;12.80;99.90;;;;;;5094370;28;20261;-50
2023/09/27 05:08:35;;;;;;;5.47;4.57;;;12.80;99.90;;;;;;5094497;28;20630;-50
2023/09/27 05:11:01;;;;;;;9.40;5.38;;;12.80;99.90;;;;;;5094350;28;20169;-50
2023/09/27 05:13:27;;;;;;;12.30;7.45;;;12.70;99.90;;;;;;5094446;28;20165;-50
2023/09/27 05:15:52;;;;;;;45.60;28.55;;;12.80;99.90;;;;;;5094582;28;20192;-50
2023/09/27 05:18:19;;;;;;;16.92;11.38;;;12.70;99.90;;;;;;5094537;28;20177;-50
2023/09/27 05:20:44;;;;;;;25.67;15.48;;;12.70;99.90;;;;;;5093999;28;20697;-50
2023/09/27 05:23:11;;;;;;;12.13;9.38;;;12.70;99.90;;;;;;5094056;28;20193;-50
2023/09/27 05:25:36;;;;;;;15.70;11.52;;;12.80;99.90;;;;;;5093993;28;20240;-51
2023/09/27 05:28:03;;;;;;;10.93;8.25;;;12.80;99.90;;;;;;5093989;28;20383;-50
2023/09/27 05:30:28;;;;;;;11.75;6.72;;;12.70;99.90;;;;;;5094317;28;20256;-50
2023/09/27 05:32:54;;;;;;;8.38;6.47;;;12.70;99.90;;;;;;5093972;28;20311;-50
2023/09/27 05:35:20;;;;;;;6.65;5.00;;;12.70;99.90;;;;;;5093739;28;20690;-50
2023/09/27 05:37:46;;;;;;;6.45;5.63;;;12.70;99.90;;;;;;5094117;28;20185;-50
2023/09/27 05:40:12;;;;;;;8.10;5.28;;;;;;;;;;5093794;28;20644;-50
2023/09/27 05:42:39;;;;;;;6.35;4.43;;;12.70;99.90;;;;;;5093675;28;20633;-51
2023/09/27 05:45:05;;;;;;;5.55;4.93;;;12.70;99.90;;;;;;5093568;28;20230;-50
2023/09/27 05:47:32;;;;;;;6.40;4.70;;;12.80;99.90;;;;;;5093775;28;20208;-50
2023/09/27 05:49:57;;;;;;;7.65;5.63;;;12.80;99.90;;;;;;5093647;28;20648;-50
2023/09/27 05:52:23;;;;;;;6.25;5.15;;;12.90;99.90;;;;;;5093565;28;20169;-50
2023/09/27 05:54:51;;;;;;;5.90;5.18;;;;;;;;;;5093896;28;20689;-50
2023/09/27 05:57:16;;;;;;;9.57;6.28;;;13.00;99.90;;;;;;5093746;28;20318;-50
2023/09/27 05:59:44;;;;;;;6.40;5.80;;;13.10;99.90;;;;;;5093766;28;20209;-50
2023/09/27 06:02:16;;;;;;;10.80;7.00;;;13.10;99.90;;;;;;5075549;28;20509;-50
2023/09/27 06:04:43;;;;;;;10.90;7.75;;;13.10;99.90;;;;;;5093349;28;20185;-51
2023/09/27 06:07:13;;;;;;;12.85;7.03;;;13.20;99.90;;;;;;5075055;28;20274;-50
2023/09/27 06:09:41;;;;;;;9.70;6.32;;;13.30;99.90;;;;;;5093352;28;20165;-50
2023/09/27 06:12:08;;;;;;;7.45;6.00;;;13.30;99.90;;;;;;5093168;28;20617;-50
2023/09/27 06:14:37;;;;;;;7.40;5.65;;;13.30;99.90;;;;;;5093192;28;20541;-50
2023/09/27 06:17:03;;;;;;;8.32;6.25;;;13.30;99.90;;;;;;5093235;28;20184;-51
2023/09/27 06:19:30;;;;;;;6.47;5.60;;;13.40;99.90;;;;;;5093074;28;20258;-50
2023/09/27 06:21:57;;;;;;;53.45;25.33;;;13.40;99.90;;;;;;5093329;28;20173;-50
2023/09/27 06:24:23;;;;;;;34.28;16.40;;;13.50;99.90;;;;;;5093016;28;20206;-51
2023/09/27 06:26:50;;;;;;;20.60;11.35;;;13.60;99.90;;;;;;5093357;28;20213;-50
2023/09/27 06:29:16;;;;;;;13.05;9.55;;;13.60;99.90;;;;;;5093217;28;20169;-50
2023/09/27 06:31:42;;;;;;;12.27;9.57;;;13.60;99.90;;;;;;5093100;28;20177;-50
2023/09/27 06:34:09;;;;;;;11.73;10.15;;;13.70;99.90;;;;;;5092835;28;20164;-50
2023/09/27 06:36:34;;;;;;;13.02;11.30;;;13.80;99.90;;;;;;5092874;28;20627;-50
2023/09/27 06:39:00;;;;;;;20.10;12.90;;;13.90;99.90;;;;;;5093008;28;20170;-50
2023/09/27 06:41:26;;;;;;;17.25;12.85;;;14.00;99.90;;;;;;5092933;28;20218;-50
2023/09/27 06:43:53;;;;;;;17.35;12.00;;;14.00;99.90;;;;;;5093085;28;20225;-50
2023/09/27 06:46:19;;;;;;;14.73;10.60;;;14.00;99.90;;;;;;5092228;28;20213;-50
2023/09/27 06:48:45;;;;;;;15.70;11.38;;;14.10;99.90;;;;;;5092517;28;20616;-50
2023/09/27 06:51:13;;;;;;;13.50;10.15;;;14.20;99.90;;;;;;5092547;28;20167;-50
2023/09/27 06:53:39;;;;;;;13.82;10.65;;;14.20;99.90;;;;;;5092511;28;20241;-50
2023/09/27 06:56:05;;;;;;;12.05;10.35;;;14.30;99.90;;;;;;5092345;28;20632;-50
2023/09/27 06:58:31;;;;;;;25.85;16.20;;;14.40;99.90;;;;;;5092631;28;20227;-50
2023/09/27 07:00:57;;;;;;;17.90;10.02;;;14.50;99.90;;;;;;5092412;28;20169;-50
2023/09/27 07:03:28;;;;;;;17.02;11.77;;;14.50;99.90;;;;;;5092202;28;20173;-50
2023/09/27 07:05:54;;;;;;;17.90;11.85;;;14.70;99.90;;;;;;5092470;28;20177;-50
2023/09/27 07:08:20;;;;;;;18.13;11.07;;;14.80;99.90;;;;;;5092671;28;20169;-50
2023/09/27 07:10:47;;;;;;;11.48;9.43;;;14.80;99.90;;;;;;5092040;28;20609;-50
2023/09/27 07:13:12;;;;;;;13.90;10.35;;;14.90;99.90;;;;;;5092279;28;20185;-50
2023/09/27 07:15:38;;;;;;;11.88;9.23;;;15.00;99.90;;;;;;5092071;28;20172;-50
2023/09/27 07:18:04;;;;;;;13.38;8.95;;;15.10;99.90;;;;;;5092112;28;20202;-50
2023/09/27 07:20:34;;;;;;;12.70;9.10;;;15.10;99.90;;;;;;5092324;28;20213;-50
2023/09/27 07:23:04;;;;;;;12.15;9.40;;;15.10;99.90;;;;;;5091932;28;20609;-50
2023/09/27 07:25:32;;;;;;;10.80;9.63;;;15.40;99.90;;;;;;5091953;28;20172;-50
2023/09/27 07:27:59;;;;;;;9.57;8.55;;;;;;;;;;5092024;28;20223;-50
2023/09/27 07:30:24;;;;;;;14.50;8.85;;;15.60;99.90;;;;;;5073777;28;20697;-51
2023/09/27 07:32:50;;;;;;;9.93;8.75;;;15.50;99.90;;;;;;5092246;28;20325;-50
2023/09/27 07:35:17;;;;;;;10.75;8.48;;;15.60;99.90;;;;;;5073674;28;20184;-51
2023/09/27 07:37:43;;;;;;;11.05;9.30;;;15.50;99.90;;;;;;5091989;28;20177;-51
2023/09/27 07:40:14;;;;;;;11.30;8.65;;;15.70;99.90;;;;;;5073517;28;20161;-51
2023/09/27 07:42:42;;;;;;;12.93;9.38;;;15.80;99.90;;;;;;5091662;28;20248;-51
2023/09/27 07:45:13;;;;;;;14.57;8.82;;;15.90;99.90;;;;;;5091752;28;20213;-51
2023/09/27 07:47:38;;;;;;;10.43;8.88;;;15.90;99.90;;;;;;5091602;28;20265;-51
2023/09/27 07:50:04;;;;;;;10.25;9.23;;;16.00;99.90;;;;;;5091603;28;20161;-51
2023/09/27 07:52:30;;;;;;;13.30;9.32;;;16.10;99.90;;;;;;5091486;28;20533;-51
2023/09/27 07:54:58;;;;;;;10.65;8.60;;;;;;;;;;5091476;28;20165;-51
2023/09/27 07:57:24;;;;;;;9.48;8.57;;;16.50;99.90;;;;;;5091421;28;20157;-51
2023/09/27 07:59:49;;;;;;;11.43;9.30;;;16.70;99.90;;;;;;5091658;28;20222;-51
2023/09/27 08:02:15;;;;;;;11.13;9.18;;;16.70;99.90;;;;;;5091454;28;20174;-51
2023/09/27 08:04:40;;;;;;;11.15;9.40;;;16.70;99.90;;;;;;5091329;28;20161;-51
2023/09/27 08:07:06;;;;;;;10.73;9.65;;;16.70;99.90;;;;;;5091357;28;20204;-51
2023/09/27 08:09:38;;;;;;;13.50;10.25;;;;;;;;;;5091423;28;20161;-51
2023/09/27 08:12:04;;;;;;;13.13;9.55;;;17.00;99.90;;;;;;5091573;28;20196;-51
2023/09/27 08:14:30;;;;;;;12.40;9.43;;;17.00;99.90;;;;;;5091415;28;20165;-51
2023/09/27 08:16:56;;;;;;;11.77;9.18;;;17.00;99.90;;;;;;5091317;28;20172;-51
2023/09/27 08:19:21;;;;;;;10.55;8.75;;;17.20;99.90;;;;;;5091966;28;20169;-51
2023/09/27 08:21:47;;;;;;;9.95;8.27;;;17.30;99.90;;;;;;5091775;28;20169;-51
2023/09/27 08:24:12;;;;;;;11.23;8.68;;;17.30;99.90;;;;;;5091450;28;20651;-51
2023/09/27 08:26:38;;;;;;;13.25;9.00;;;17.70;99.90;;;;;;5091123;28;20668;-51
2023/09/27 08:29:05;;;;;;;13.23;8.27;;;17.90;99.90;;;;;;5091194;28;20177;-50
2023/09/27 08:31:34;;;;;;;11.00;8.02;;;17.90;99.90;;;;;;5091474;28;20174;-51
2023/09/27 08:34:00;;;;;;;11.70;8.25;;;17.80;99.90;;;;;;5091201;28;20162;-51
2023/09/27 08:36:25;;;;;;;14.02;8.02;;;17.80;99.90;;;;;;5091111;28;20656;-50
2023/09/27 08:38:51;;;;;;;9.70;8.20;;;18.10;99.90;;;;;;5091553;28;20181;-50
2023/09/27 08:41:18;;;;;;;9.57;8.30;;;18.10;99.90;;;;;;5091771;28;20187;-50
2023/09/27 08:43:44;;;;;;;9.80;7.93;;;18.10;99.90;;;;;;5091037;28;20540;-50
2023/09/27 08:46:10;;;;;;;9.90;8.18;;;18.20;99.90;;;;;;5090838;28;20676;-51
2023/09/27 08:48:37;;;;;;;16.35;8.50;;;18.40;99.90;;;;;;5091016;28;20175;-51
2023/09/27 08:51:04;;;;;;;9.98;8.38;;;18.60;99.90;;;;;;5072962;28;20169;-50
2023/09/27 08:53:32;;;;;;;12.05;8.35;;;18.80;99.90;;;;;;5091031;28;20218;-51
2023/09/27 08:55:58;;;;;;;11.88;8.27;;;19.00;99.90;;;;;;5091004;28;20624;-50
2023/09/27 08:58:25;;;;;;;13.10;8.35;;;19.10;99.90;;;;;;5090957;28;20181;-50
2023/09/27 09:00:52;;;;;;;10.32;7.07;;;19.10;99.90;;;;;;5091637;28;20170;-51
2023/09/27 09:03:18;;;;;;;8.95;6.85;;;19.10;99.90;;;;;;5091271;28;20629;-51
2023/09/27 09:05:45;;;;;;;12.05;7.13;;;19.20;99.90;;;;;;5072737;28;20257;-50
2023/09/27 09:08:11;;;;;;;14.30;7.07;;;19.20;99.90;;;;;;5090741;28;20204;-51
2023/09/27 09:10:37;;;;;;;9.05;6.70;;;19.30;99.90;;;;;;5092392;28;20157;-50
2023/09/27 09:13:04;;;;;;;9.05;7.35;;;19.30;99.90;;;;;;5094544;28;20180;-50
2023/09/27 09:15:40;;;;;;;8.13;7.30;;;19.40;99.90;;;;;;5094575;28;20170;-51
2023/09/27 09:18:14;;;;;;;9.63;7.15;;;19.20;99.90;;;;;;5094344;28;20195;-50
2023/09/27 09:20:54;;;;;;;14.02;6.90;;;19.30;99.90;;;;;;5094184;28;20192;-51
2023/09/27 09:23:33;;;;;;;8.73;7.13;;;19.60;99.90;;;;;;5076417;28;20173;-50
2023/09/27 09:25:59;;;;;;;9.10;7.35;;;19.70;99.90;;;;;;5094374;28;20504;-50
2023/09/27 09:28:25;;;;;;;8.00;6.43;;;19.80;99.90;;;;;;5094277;28;20169;-50
2023/09/27 09:30:51;;;;;;;9.82;5.55;;;19.90;99.90;;;;;;5094363;28;20523;-50
2023/09/27 09:33:21;;;;;;;8.90;6.20;;;19.80;99.90;;;;;;5094367;28;20177;-50
2023/09/27 09:35:47;;;;;;;9.05;6.07;;;;;;;;;;5093939;28;20165;-50
2023/09/27 09:38:23;;;;;;;7.40;5.72;;;20.20;99.90;;;;;;5094206;28;20165;-50
2023/09/27 09:41:01;;;;;;;6.97;5.68;;;20.40;99.90;;;;;;5094293;28;20169;-50
2023/09/27 09:43:31;;;;;;;7.07;5.80;;;20.60;99.90;;;;;;5076378;28;20226;-50
2023/09/27 09:45:57;;;;;;;9.40;5.25;;;20.80;99.90;;;;;;5093604;28;20740;-50
2023/09/27 09:48:23;;;;;;;7.75;5.45;;;20.70;99.90;;;;;;5093528;28;20217;-50
2023/09/27 09:50:49;;;;;;;7.30;5.82;;;20.30;99.90;;;;;;5094102;28;20160;-50
2023/09/27 09:53:17;;;;;;;12.35;5.80;;;20.30;99.90;;;;;;5093588;28;20617;-50
2023/09/27 09:55:49;;;;;;;11.57;5.85;;;20.60;99.90;;;;;;5093554;28;20160;-50
2023/09/27 09:58:39;;;;;;;7.78;5.78;;;20.70;99.90;;;;;;5093817;28;20248;-50
2023/09/27 10:01:07;;;;;;;10.70;5.60;;;21.00;99.90;;;;;;5093414;28;20169;-51
2023/09/27 10:03:34;;;;;;;13.25;5.45;;;21.10;99.90;;;;;;5093663;28;20591;-51
2023/09/27 10:06:01;;;;;;;9.85;5.07;;;21.30;99.90;;;;;;5093403;28;20173;-50
2023/09/27 10:08:34;;;;;;;11.20;5.22;;;21.40;99.90;;;;;;5093648;28;20173;-50
2023/09/27 10:11:03;;;;;;;5.47;4.97;;;21.60;99.90;;;;;;5093332;28;20165;-51
2023/09/27 10:13:35;;;;;;;8.65;5.15;;;21.70;99.90;;;;;;5093350;28;20253;-50
2023/09/27 10:16:03;;;;;;;7.78;4.82;;;21.90;99.90;;;;;;5093467;28;20207;-51
2023/09/27 10:18:30;;;;;;;6.47;4.90;;;21.90;99.90;;;;;;5093757;28;20180;-50
2023/09/27 10:21:02;;;;;;;8.32;4.90;;;22.10;99.90;;;;;;5092931;28;20184;-50
2023/09/27 10:23:46;;;;;;;6.40;4.65;;;22.30;99.90;;;;;;5093075;28;20166;-50
2023/09/27 10:26:27;;;;;;;9.10;4.40;;;22.30;99.90;;;;;;5092921;28;20165;-50
2023/09/27 10:29:06;;;;;;;11.70;6.85;;;22.50;99.90;;;;;;5093088;28;20541;-50
2023/09/27 10:31:36;;;;;;;7.00;5.05;;;22.50;99.90;;;;;;5092840;28;20244;-51
2023/09/27 10:34:02;;;;;;;10.95;4.68;;;22.60;99.90;;;;;;5092705;28;20169;-50
2023/09/27 10:36:29;;;;;;;10.18;5.50;;;22.70;99.90;;;;;;5092774;28;20237;-51
2023/09/27 10:38:55;;;;;;;7.32;4.97;;;;;;;;;;5092745;28;20162;-51
2023/09/27 10:41:33;;;;;;;14.55;7.15;;;22.80;99.90;;;;;;5093052;28;20213;-51
2023/09/27 10:43:59;;;;;;;9.98;6.43;;;22.70;99.90;;;;;;5092636;28;20191;-50
2023/09/27 10:46:25;;;;;;;6.28;5.20;;;22.80;99.90;;;;;;5092475;28;20660;-51
2023/09/27 10:48:55;;;;;;;8.32;4.90;;;23.00;99.90;;;;;;5092964;28;20173;-51
2023/09/27 10:51:21;;;;;;;5.10;3.95;;;;;;;;;;5092974;28;20189;-51
2023/09/27 10:53:48;;;;;;;10.20;6.07;;;22.90;99.90;;;;;;5093123;28;20272;-51
2023/09/27 10:56:15;;;;;;;10.55;7.07;;;23.00;99.90;;;;;;5092712;28;20175;-50
2023/09/27 10:58:50;;;;;;;11.07;5.38;;;23.10;99.90;;;;;;5074216;28;20223;-51
2023/09/27 11:01:23;;;;;;;11.20;4.53;;;23.00;99.90;;;;;;5092866;28;20171;-51
2023/09/27 11:03:57;;;;;;;7.82;4.85;;;22.80;99.90;;;;;;5092933;28;20195;-51
2023/09/27 11:06:23;;;;;;;7.22;4.65;;;23.00;99.90;;;;;;5092151;28;20215;-51
2023/09/27 11:08:48;;;;;;;9.55;5.38;;;23.10;99.90;;;;;;5092600;28;20590;-51
2023/09/27 11:11:14;;;;;;;6.60;4.32;;;23.20;99.90;;;;;;5092451;28;20165;-51
2023/09/27 11:13:43;;;;;;;8.90;4.72;;;23.60;99.90;;;;;;5092052;28;20169;-51
2023/09/27 11:16:10;;;;;;;6.38;3.88;;;23.90;99.90;;;;;;5092015;28;20173;-51
2023/09/27 11:18:44;;;;;;;5.32;4.18;;;23.90;99.90;;;;;;5073918;28;20212;-51
2023/09/27 11:21:11;;;;;;;10.55;5.40;;;24.00;99.90;;;;;;5074043;28;20591;-51
2023/09/27 11:23:52;;;;;;;7.40;5.13;;;23.70;99.90;;;;;;5091886;28;20171;-51
2023/09/27 11:26:19;;;;;;;9.88;6.03;;;23.70;99.90;;;;;;5092208;28;20703;-51
2023/09/27 11:28:54;;;;;;;6.93;4.55;;;23.60;99.90;;;;;;5092021;28;20202;-51
2023/09/27 11:31:23;;;;;;;5.45;4.03;;;23.50;99.90;;;;;;5092208;28;20636;-51
2023/09/27 11:33:49;;;;;;;7.75;5.38;;;23.20;99.90;;;;;;5091660;28;20695;-51
2023/09/27 11:36:15;;;;;;;5.38;4.05;;;23.30;99.90;;;;;;5091723;28;20181;-51
2023/09/27 11:38:50;;;;;;;9.05;4.53;;;23.10;99.90;;;;;;5091685;28;20528;-50
2023/09/27 11:41:18;;;;;;;9.45;3.70;;;23.10;99.90;;;;;;5092096;28;20161;-50
2023/09/27 11:43:45;;;;;;;10.32;5.22;;;23.30;99.90;;;;;;5091904;28;20165;-50
2023/09/27 11:46:11;;;;;;;8.68;3.67;;;23.20;99.90;;;;;;5091392;28;20216;-50
2023/09/27 11:48:36;;;;;;;6.47;4.28;;;23.50;99.90;;;;;;5091788;28;20306;-52
2023/09/27 11:51:02;;;;;;;3.50;3.20;;;23.60;99.90;;;;;;5091599;28;20173;-51
2023/09/27 11:53:28;;;;;;;7.32;4.55;;;23.30;99.90;;;;;;5091599;28;20215;-50
2023/09/27 11:55:55;;;;;;;6.35;4.63;;;23.10;99.90;;;;;;5091599;28;20157;-50
2023/09/27 11:58:22;;;;;;;8.35;4.90;;;;;;;;;;5091720;28;20540;-50
2023/09/27 12:00:48;;;;;;;3.50;3.20;;;23.30;99.90;;;;;;5092214;28;20169;-50
2023/09/27 12:03:13;;;;;;;6.28;3.95;;;23.70;99.90;;;;;;5091433;28;20655;-50
2023/09/27 12:05:39;;;;;;;7.20;4.25;;;24.10;99.90;;;;;;5091483;28;20563;-51
2023/09/27 12:08:07;;;;;;;8.80;3.45;;;24.20;99.90;;;;;;5091434;28;20687;-50
2023/09/27 12:10:32;;;;;;;6.25;3.05;;;24.20;99.90;;;;;;5091509;28;20165;-50
2023/09/27 12:12:58;;;;;;;5.78;3.60;;;;;;;;;;5091361;28;20188;-50
2023/09/27 12:15:25;;;;;;;12.95;5.85;;;24.30;99.90;;;;;;5073190;28;20172;-51
2023/09/27 12:17:50;;;;;;;6.80;3.75;;;24.30;99.90;;;;;;5092063;28;20179;-50
2023/09/27 12:20:16;;;;;;;5.90;2.70;;;24.40;99.90;;;;;;5091770;28;20535;-51
2023/09/27 12:22:42;;;;;;;6.35;2.90;;;24.50;99.90;;;;;;5073183;28;20173;-50
2023/09/27 12:25:08;;;;;;;4.28;3.25;;;24.50;99.90;;;;;;5091565;28;20175;-50
2023/09/27 12:27:34;;;;;;;7.30;3.17;;;24.50;99.90;;;;;;5091200;28;20812;-50
2023/09/27 12:30:00;;;;;;;6.95;3.17;;;24.50;99.90;;;;;;5091312;28;20211;-50
2023/09/27 12:32:25;;;;;;;7.68;3.60;;;24.60;99.90;;;;;;5091432;28;20181;-50
2023/09/27 12:34:52;;;;;;;4.07;3.30;;;24.50;99.90;;;;;;5073006;28;20223;-51
2023/09/27 12:37:17;;;;;;;4.20;3.10;;;24.50;99.90;;;;;;5091719;28;20161;-50
2023/09/27 12:39:43;;;;;;;6.70;3.83;;;24.10;99.90;;;;;;5091175;28;20260;-50
2023/09/27 12:42:09;;;;;;;4.60;3.17;;;24.10;99.90;;;;;;5091080;28;20165;-50
2023/09/27 12:44:34;;;;;;;7.65;4.55;;;24.00;99.90;;;;;;5091070;28;20200;-51
2023/09/27 12:47:00;;;;;;;9.77;6.50;;;24.00;99.90;;;;;;5094680;28;20224;-51
2023/09/27 12:49:25;;;;;;;8.52;5.30;;;23.90;99.90;;;;;;5094954;28;20172;-51